createdAt,value
2023-02-18T00:01:33.489Z,10.00
2023-02-18T00:04:03.685Z,9.90
2023-02-18T00:06:32.869Z,9.90
2023-02-18T00:09:02.259Z,9.90
2023-02-18T00:11:31.185Z,9.80
2023-02-18T00:14:00.127Z,9.80
2023-02-18T00:16:27.884Z,9.80
2023-02-18T00:19:07.796Z,9.80
2023-02-18T00:21:35.740Z,9.80
2023-02-18T00:24:03.358Z,9.80
2023-02-18T00:26:29.994Z,9.80
2023-02-18T00:28:56.881Z,9.70
2023-02-18T00:31:32.820Z,9.70
2023-02-18T00:34:02.394Z,9.70
2023-02-18T00:36:29.723Z,9.60
2023-02-18T00:39:01.211Z,9.60
2023-02-18T00:41:29.606Z,9.60
2023-02-18T00:43:57.375Z,9.60
2023-02-18T00:46:24.806Z,9.50
2023-02-18T00:48:53.781Z,9.50
2023-02-18T00:51:21.416Z,9.50
2023-02-18T00:53:52.954Z,9.50
2023-02-18T00:56:20.755Z,9.40
2023-02-18T00:58:48.967Z,9.50
2023-02-18T01:01:15.963Z,9.50
2023-02-18T01:03:43.658Z,9.40
2023-02-18T01:06:11.645Z,9.40
2023-02-18T01:08:39.546Z,9.30
2023-02-18T01:11:07.640Z,9.30
2023-02-18T01:13:35.466Z,9.30
2023-02-18T01:16:02.614Z,9.30
2023-02-18T01:18:30.671Z,9.30
2023-02-18T01:20:58.287Z,9.30
2023-02-18T01:23:25.415Z,9.20
2023-02-18T01:25:53.002Z,9.20
2023-02-18T01:28:21.390Z,9.20
2023-02-18T01:30:48.089Z,9.20
2023-02-18T01:33:14.798Z,9.20
2023-02-18T01:35:41.857Z,9.10
2023-02-18T01:38:09.817Z,9.10
2023-02-18T01:40:44.695Z,9.10
2023-02-18T01:43:12.653Z,9.10
2023-02-18T01:45:51.115Z,9.10
2023-02-18T01:48:39.568Z,9.10
2023-02-18T01:51:14.840Z,9.00
2023-02-18T01:53:48.514Z,9.00
2023-02-18T01:56:24.379Z,9.00
2023-02-18T01:58:54.157Z,9.00
2023-02-18T02:01:21.207Z,9.00
2023-02-18T02:03:47.943Z,9.00
2023-02-18T02:06:19.462Z,9.00
2023-02-18T02:08:53.484Z,9.00
2023-02-18T02:11:48.901Z,9.00
2023-02-18T02:14:24.826Z,9.00
2023-02-18T02:17:03.178Z,9.00
2023-02-18T02:20:15.800Z,9.00
2023-02-18T02:23:18.171Z,9.00
2023-02-18T02:26:02.832Z,9.10
2023-02-18T02:28:54.539Z,9.10
2023-02-18T02:31:58.190Z,9.20
2023-02-18T02:34:33.494Z,9.20
2023-02-18T02:37:00.106Z,9.20
2023-02-18T02:40:06.747Z,9.20
2023-02-18T02:42:59.977Z,9.30
2023-02-18T02:46:03.330Z,9.30
2023-02-18T02:49:04.945Z,9.30
2023-02-18T02:52:07.809Z,9.30
2023-02-18T02:54:34.512Z,9.30
2023-02-18T02:57:18.419Z,9.40
2023-02-18T03:00:01.461Z,9.40
2023-02-18T03:02:39.649Z,9.40
2023-02-18T03:05:19.878Z,9.40
2023-02-18T03:08:05.377Z,9.50
2023-02-18T03:10:38.847Z,9.50
2023-02-18T03:13:26.647Z,9.50
2023-02-18T03:15:58.797Z,9.50
2023-02-18T03:18:33.733Z,9.60
2023-02-18T03:21:22.776Z,9.60
2023-02-18T03:24:20.756Z,9.60
2023-02-18T03:26:51.734Z,9.60
2023-02-18T03:29:20.878Z,9.70
2023-02-18T03:31:54.242Z,9.70
2023-02-18T03:34:29.889Z,9.70
2023-02-18T03:36:59.706Z,9.70
2023-02-18T03:39:29.676Z,9.80
2023-02-18T03:41:56.789Z,9.80
2023-02-18T03:44:26.307Z,9.80
2023-02-18T03:46:56.164Z,9.80
2023-02-18T03:49:23.174Z,9.80
2023-02-18T03:51:50.040Z,9.80
2023-02-18T03:54:16.797Z,9.80
2023-02-18T03:56:44.007Z,9.80
2023-02-18T03:59:12.155Z,9.80
2023-02-18T04:01:39.421Z,9.80
2023-02-18T04:04:06.257Z,9.90
2023-02-18T04:06:33.038Z,9.80
2023-02-18T04:08:59.777Z,9.80
2023-02-18T04:11:26.555Z,9.90
2023-02-18T04:13:53.249Z,9.90
2023-02-18T04:16:19.923Z,9.90
2023-02-18T04:18:46.646Z,9.90
2023-02-18T04:21:13.382Z,10.00
2023-02-18T04:23:40.093Z,10.00
2023-02-18T04:26:07.164Z,10.00
2023-02-18T04:28:35.653Z,10.00
2023-02-18T04:31:02.467Z,10.00
2023-02-18T04:33:29.228Z,10.00
2023-02-18T04:35:55.946Z,10.00
2023-02-18T04:38:22.660Z,10.00
2023-02-18T04:40:49.453Z,10.00
2023-02-18T04:43:16.227Z,10.00
2023-02-18T04:45:42.872Z,10.00
2023-02-18T04:48:09.581Z,10.00
2023-02-18T04:50:36.275Z,10.00
2023-02-18T04:53:02.973Z,10.00
2023-02-18T04:55:29.672Z,10.00
2023-02-18T04:57:56.358Z,10.00
2023-02-18T05:00:23.097Z,9.90
2023-02-18T05:02:49.837Z,9.90
2023-02-18T05:05:16.650Z,9.90
2023-02-18T05:07:43.419Z,9.90
2023-02-18T05:10:14.324Z,9.90
2023-02-18T05:12:41.061Z,9.90
2023-02-18T05:15:08.433Z,9.90
2023-02-18T05:17:35.609Z,9.80
2023-02-18T05:20:02.615Z,9.90
2023-02-18T05:22:29.282Z,9.80
2023-02-18T05:24:55.904Z,9.80
2023-02-18T05:27:22.618Z,9.80
2023-02-18T05:29:49.267Z,9.80
2023-02-18T05:32:18.022Z,9.80
2023-02-18T05:34:44.699Z,9.80
2023-02-18T05:37:13.541Z,9.80
2023-02-18T05:39:41.693Z,9.70
2023-02-18T05:42:08.481Z,9.80
2023-02-18T05:44:35.273Z,9.80
2023-02-18T05:47:04.905Z,9.70
2023-02-18T05:49:32.962Z,9.70
2023-02-18T05:51:59.681Z,9.70
2023-02-18T05:54:27.064Z,9.70
2023-02-18T05:56:56.412Z,9.70
2023-02-18T05:59:24.624Z,9.80
2023-02-18T06:01:51.450Z,9.80
2023-02-18T06:04:18.530Z,9.80
2023-02-18T06:06:45.471Z,9.70
2023-02-18T06:09:12.566Z,9.70
2023-02-18T06:11:42.361Z,9.80
2023-02-18T06:14:09.199Z,9.70
2023-02-18T06:16:35.904Z,9.80
2023-02-18T06:19:02.615Z,9.80
2023-02-18T06:21:29.428Z,9.80
2023-02-18T06:23:57.248Z,9.80
2023-02-18T06:26:23.989Z,9.80
2023-02-18T06:28:50.762Z,9.80
2023-02-18T06:31:17.554Z,9.80
2023-02-18T06:33:44.389Z,9.80
2023-02-18T06:36:12.466Z,9.80
2023-02-18T06:38:41.143Z,9.80
2023-02-18T06:41:08.627Z,9.80
2023-02-18T06:43:35.826Z,9.80
2023-02-18T06:46:03.065Z,9.80
2023-02-18T06:48:29.883Z,9.80
2023-02-18T06:50:57.156Z,9.80
2023-02-18T06:53:23.890Z,9.80
2023-02-18T06:55:50.660Z,9.90
2023-02-18T06:58:17.813Z,9.80
2023-02-18T07:00:45.074Z,9.90
2023-02-18T07:03:14.307Z,9.80
2023-02-18T07:05:42.404Z,9.90
2023-02-18T07:08:09.228Z,9.90
2023-02-18T07:10:35.968Z,9.80
2023-02-18T07:13:02.935Z,9.80
2023-02-18T07:15:29.714Z,9.90
2023-02-18T07:17:56.712Z,9.90
2023-02-18T07:20:23.877Z,9.90
2023-02-18T07:22:51.389Z,9.90
2023-02-18T07:25:24.668Z,9.90
2023-02-18T07:27:52.149Z,9.90
2023-02-18T07:30:20.390Z,9.90
2023-02-18T07:32:47.175Z,10.00
2023-02-18T07:35:16.324Z,9.90
2023-02-18T07:37:47.881Z,10.00
2023-02-18T07:40:21.105Z,9.90
2023-02-18T07:42:48.500Z,9.90
2023-02-18T07:45:19.742Z,9.90
2023-02-18T07:47:46.650Z,9.90
2023-02-18T07:50:14.610Z,9.90
2023-02-18T07:52:41.494Z,9.90
2023-02-18T07:55:09.045Z,9.90
2023-02-18T07:57:57.217Z,9.90
2023-02-18T08:00:24.248Z,9.80
2023-02-18T08:02:50.943Z,9.80
2023-02-18T08:05:17.625Z,9.80
2023-02-18T08:07:44.531Z,9.80
2023-02-18T08:10:11.297Z,9.80
2023-02-18T08:12:38.013Z,9.80
2023-02-18T08:15:05.360Z,9.80
2023-02-18T08:17:32.110Z,9.80
2023-02-18T08:19:58.836Z,9.80
2023-02-18T08:22:25.823Z,9.80
2023-02-18T08:24:55.733Z,9.70
2023-02-18T08:27:23.848Z,9.70
2023-02-18T08:29:50.665Z,9.60
2023-02-18T08:32:21.026Z,9.60
2023-02-18T08:34:47.951Z,9.60
2023-02-18T08:37:14.703Z,9.60
2023-02-18T08:39:41.596Z,9.60
2023-02-18T08:42:08.567Z,9.60
2023-02-18T08:44:35.323Z,9.50
2023-02-18T08:47:02.096Z,9.50
2023-02-18T08:49:28.821Z,9.50
2023-02-18T08:51:56.425Z,9.50
2023-02-18T08:54:23.718Z,9.50
2023-02-18T08:56:59.780Z,9.50
2023-02-18T08:59:27.096Z,9.40
2023-02-18T09:01:53.948Z,9.40
2023-02-18T09:04:21.332Z,9.40
2023-02-18T09:06:58.831Z,9.40
2023-02-18T09:09:28.931Z,9.40
2023-02-18T09:11:55.657Z,9.50
2023-02-18T09:14:22.473Z,9.40
2023-02-18T09:16:50.701Z,9.40
2023-02-18T09:19:18.767Z,9.40
2023-02-18T09:21:45.484Z,9.40
2023-02-18T09:24:12.266Z,9.40
2023-02-18T09:26:39.987Z,9.40
2023-02-18T09:29:09.901Z,9.40
2023-02-18T09:31:37.937Z,9.50
2023-02-18T09:34:05.441Z,9.50
2023-02-18T09:36:33.129Z,9.50
2023-02-18T09:39:00.592Z,9.50
2023-02-18T09:41:46.462Z,9.50
2023-02-18T09:44:27.753Z,9.50
2023-02-18T09:47:02.240Z,9.50
2023-02-18T09:49:35.339Z,9.60
2023-02-18T09:52:23.717Z,9.50
2023-02-18T09:54:51.307Z,9.60
2023-02-18T09:57:28.790Z,9.60
2023-02-18T10:00:06.809Z,9.60
2023-02-18T10:02:39.649Z,9.60
2023-02-18T10:05:07.047Z,9.60
2023-02-18T10:07:36.238Z,9.70
2023-02-18T10:10:21.145Z,9.70
2023-02-18T10:12:49.914Z,9.80
2023-02-18T10:15:25.628Z,9.80
2023-02-18T10:17:53.049Z,9.80
2023-02-18T10:20:25.335Z,9.90
2023-02-18T10:22:57.565Z,9.90
2023-02-18T10:25:26.170Z,9.90
2023-02-18T10:27:54.016Z,9.90
2023-02-18T10:30:33.269Z,9.90
2023-02-18T10:33:17.410Z,10.00
2023-02-18T10:36:02.626Z,10.00
2023-02-18T10:38:38.124Z,10.00
2023-02-18T10:41:29.374Z,10.00
2023-02-18T10:44:10.862Z,10.10
2023-02-18T10:47:10.015Z,10.10
2023-02-18T10:49:51.846Z,10.20
2023-02-18T10:52:19.525Z,10.20
2023-02-18T10:54:53.857Z,10.30
2023-02-18T10:57:23.854Z,10.40
2023-02-18T11:00:00.486Z,10.40
2023-02-18T11:02:35.556Z,10.40
2023-02-18T11:05:25.865Z,10.50
2023-02-18T11:07:56.890Z,10.50
2023-02-18T11:10:31.729Z,10.50
2023-02-18T11:13:02.726Z,10.50
2023-02-18T11:15:29.824Z,10.60
2023-02-18T11:17:59.979Z,10.60
2023-02-18T11:20:38.218Z,10.70
2023-02-18T11:23:07.852Z,10.70
2023-02-18T11:25:39.966Z,10.80
2023-02-18T11:28:33.489Z,10.80
2023-02-18T11:31:02.524Z,10.90
2023-02-18T11:33:41.545Z,10.90
2023-02-18T11:36:18.647Z,10.90
2023-02-18T11:38:49.829Z,10.90
2023-02-18T11:41:22.336Z,10.90
2023-02-18T11:43:54.348Z,10.90
2023-02-18T11:46:24.092Z,10.90
2023-02-18T11:48:52.184Z,10.80
2023-02-18T11:51:33.142Z,10.80
2023-02-18T11:54:06.245Z,10.70
2023-02-18T11:56:35.486Z,10.70
2023-02-18T11:59:03.897Z,10.80
2023-02-18T12:01:48.103Z,10.80
2023-02-18T12:04:24.539Z,10.80
2023-02-18T12:06:54.747Z,10.80
2023-02-18T12:09:32.376Z,10.80
2023-02-18T12:12:03.529Z,10.90
2023-02-18T12:14:30.567Z,11.00
2023-02-18T12:17:26.540Z,11.00
2023-02-18T12:20:12.423Z,11.00
2023-02-18T12:22:43.142Z,11.10
2023-02-18T12:25:21.789Z,11.10
2023-02-18T12:28:24.205Z,11.20
2023-02-18T12:31:29.100Z,11.10
2023-02-18T12:34:30.520Z,11.10
2023-02-18T12:37:34.661Z,11.20
2023-02-18T12:40:23.939Z,11.20
2023-02-18T12:43:01.747Z,11.30
2023-02-18T12:46:16.732Z,11.40
2023-02-18T12:49:02.181Z,11.40
2023-02-18T12:51:47.618Z,11.50
2023-02-18T12:54:36.843Z,11.60
2023-02-18T12:57:18.048Z,11.60
2023-02-18T13:00:10.854Z,11.70
2023-02-18T13:03:02.597Z,11.70
2023-02-18T13:06:04.718Z,11.80
2023-02-18T13:08:55.379Z,11.80
2023-02-18T13:11:44.137Z,11.80
2023-02-18T13:14:23.370Z,11.70
2023-02-18T13:16:54.839Z,11.70
2023-02-18T13:19:43.958Z,11.60
2023-02-18T13:22:20.640Z,11.60
2023-02-18T13:24:51.183Z,11.70
2023-02-18T13:27:38.845Z,11.70
2023-02-18T13:30:43.262Z,11.70
2023-02-18T13:33:39.121Z,11.80
2023-02-18T13:36:30.325Z,11.70
2023-02-18T13:39:04.206Z,11.80
2023-02-18T13:41:39.805Z,11.80
2023-02-18T13:44:19.206Z,11.80
2023-02-18T13:46:49.390Z,11.80
2023-02-18T13:49:22.036Z,11.80
2023-02-18T13:51:51.703Z,11.90
2023-02-18T13:54:26.311Z,11.80
2023-02-18T13:57:05.000Z,11.80
2023-02-18T13:59:46.454Z,11.80
2023-02-18T14:02:19.621Z,11.80
2023-02-18T14:04:46.395Z,11.80
2023-02-18T14:07:25.135Z,11.80
2023-02-18T14:09:53.577Z,11.80
2023-02-18T14:12:41.464Z,11.90
2023-02-18T14:15:22.677Z,11.90
2023-02-18T14:18:02.973Z,11.90
2023-02-18T14:20:44.581Z,11.90
2023-02-18T14:23:24.049Z,11.90
2023-02-18T14:25:58.895Z,11.90
2023-02-18T14:29:04.671Z,11.90
2023-02-18T14:31:57.085Z,12.00
2023-02-18T14:34:23.840Z,12.00
2023-02-18T14:37:00.056Z,12.00
2023-02-18T14:39:47.994Z,12.00
2023-02-18T14:42:40.888Z,12.00
2023-02-18T14:45:12.880Z,12.10
2023-02-18T14:47:54.336Z,12.10
2023-02-18T14:50:22.344Z,12.20
2023-02-18T14:52:56.860Z,12.20
2023-02-18T14:55:29.212Z,12.20
2023-02-18T14:58:04.958Z,12.10
2023-02-18T15:00:38.864Z,12.10
2023-02-18T15:03:16.498Z,12.10
2023-02-18T15:05:44.430Z,12.10
2023-02-18T15:08:21.478Z,12.00
2023-02-18T15:11:05.138Z,12.00
2023-02-18T15:13:36.069Z,12.00
2023-02-18T15:16:13.368Z,12.00
2023-02-18T15:18:56.921Z,11.90
2023-02-18T15:21:34.985Z,11.90
2023-02-18T15:24:31.999Z,11.90
2023-02-18T15:27:23.424Z,11.90
2023-02-18T15:29:59.368Z,11.90
2023-02-18T15:32:28.907Z,11.90
2023-02-18T15:35:04.129Z,11.80
2023-02-18T15:37:31.400Z,11.80
2023-02-18T15:39:58.357Z,11.80
2023-02-18T15:42:33.654Z,11.80
2023-02-18T15:45:34.528Z,11.70
2023-02-18T15:48:02.274Z,11.70
2023-02-18T15:50:56.922Z,11.60
2023-02-18T15:53:28.871Z,11.60
2023-02-18T15:55:56.421Z,11.50
2023-02-18T15:58:28.629Z,11.50
2023-02-18T16:01:06.669Z,11.60
2023-02-18T16:03:39.392Z,11.50
2023-02-18T16:06:27.024Z,11.50
2023-02-18T16:09:01.724Z,11.50
2023-02-18T16:11:38.978Z,11.50
2023-02-18T16:14:06.199Z,11.50
2023-02-18T16:16:36.111Z,11.50
2023-02-18T16:19:04.284Z,11.50
2023-02-18T16:21:44.268Z,11.50
2023-02-18T16:24:27.149Z,11.40
2023-02-18T16:26:58.479Z,11.40
2023-02-18T16:29:41.626Z,11.40
2023-02-18T16:32:08.733Z,11.30
2023-02-18T16:34:37.213Z,11.30
2023-02-18T16:37:24.560Z,11.30
2023-02-18T16:39:54.820Z,11.30
2023-02-18T16:42:21.982Z,11.30
2023-02-18T16:44:50.508Z,11.30
2023-02-18T16:47:19.457Z,11.30
2023-02-18T16:49:50.037Z,11.20
2023-02-18T16:52:18.412Z,11.30
2023-02-18T16:54:47.618Z,11.30
2023-02-18T16:57:14.520Z,11.30
2023-02-18T16:59:41.195Z,11.20
2023-02-18T17:02:18.276Z,11.30
2023-02-18T17:04:44.988Z,11.20
2023-02-18T17:07:12.006Z,11.20
2023-02-18T17:09:39.038Z,11.10
2023-02-18T17:12:08.676Z,11.10
2023-02-18T17:14:35.406Z,11.10
2023-02-18T17:17:03.083Z,11.10
2023-02-18T17:19:30.692Z,11.10
2023-02-18T17:21:58.393Z,11.10
2023-02-18T17:24:25.089Z,11.10
2023-02-18T17:26:51.750Z,11.10
2023-02-18T17:29:19.524Z,11.00
2023-02-18T17:31:47.315Z,11.00
2023-02-18T17:34:20.645Z,11.00
2023-02-18T17:36:47.441Z,11.00
2023-02-18T17:39:17.326Z,11.00
2023-02-18T17:41:44.460Z,11.00
2023-02-18T17:44:19.452Z,10.90
2023-02-18T17:46:46.480Z,10.90
2023-02-18T17:49:13.403Z,11.00
2023-02-18T17:51:40.110Z,10.90
2023-02-18T17:54:12.399Z,10.90
2023-02-18T17:56:40.637Z,10.90
2023-02-18T17:59:13.800Z,10.90
2023-02-18T18:01:40.948Z,10.80
2023-02-18T18:04:15.613Z,10.80
2023-02-18T18:06:43.280Z,10.80
2023-02-18T18:09:09.944Z,10.70
2023-02-18T18:11:37.431Z,10.70
2023-02-18T18:14:04.691Z,10.70
2023-02-18T18:16:31.453Z,10.70
2023-02-18T18:18:58.390Z,10.60
2023-02-18T18:21:32.355Z,10.60
2023-02-18T18:23:59.089Z,10.60
2023-02-18T18:26:26.290Z,10.50
2023-02-18T18:28:59.753Z,10.50
2023-02-18T18:31:26.606Z,10.50
2023-02-18T18:33:53.857Z,10.50
2023-02-18T18:36:22.167Z,10.50
2023-02-18T18:38:49.062Z,10.40
2023-02-18T18:41:20.600Z,10.40
2023-02-18T18:43:47.891Z,10.30
2023-02-18T18:46:14.862Z,10.30
2023-02-18T18:48:42.529Z,10.30
2023-02-18T18:51:16.542Z,10.30
2023-02-18T18:53:44.600Z,10.20
2023-02-18T18:56:19.777Z,10.20
2023-02-18T18:59:00.994Z,10.30
2023-02-18T19:01:41.612Z,10.30
2023-02-18T19:04:14.459Z,10.20
2023-02-18T19:06:41.220Z,10.30
2023-02-18T19:09:10.142Z,10.20
2023-02-18T19:11:37.541Z,10.20
2023-02-18T19:14:06.223Z,10.30
2023-02-18T19:16:39.108Z,10.20
2023-02-18T19:19:05.825Z,10.30
2023-02-18T19:21:42.827Z,10.20
2023-02-18T19:24:19.970Z,10.20
2023-02-18T19:26:46.914Z,10.30
2023-02-18T19:29:15.046Z,10.20
2023-02-18T19:31:45.072Z,10.30
2023-02-18T19:34:12.156Z,10.20
2023-02-18T19:36:39.106Z,10.30
2023-02-18T19:39:10.113Z,10.30
2023-02-18T19:41:36.809Z,10.30
2023-02-18T19:44:04.636Z,10.20
2023-02-18T19:46:32.444Z,10.20
2023-02-18T19:49:08.598Z,10.30
2023-02-18T19:51:35.667Z,10.30
2023-02-18T19:54:02.512Z,10.30
2023-02-18T19:56:29.373Z,10.20
2023-02-18T19:58:56.659Z,10.20
2023-02-18T20:01:23.412Z,10.20
2023-02-18T20:03:50.318Z,10.20
2023-02-18T20:06:21.796Z,10.20
2023-02-18T20:08:48.623Z,10.20
2023-02-18T20:11:15.405Z,10.20
2023-02-18T20:13:42.370Z,10.20
2023-02-18T20:16:09.947Z,10.20
2023-02-18T20:18:36.715Z,10.20
2023-02-18T20:21:03.846Z,10.20
2023-02-18T20:23:30.535Z,10.20
2023-02-18T20:26:04.016Z,10.20
2023-02-18T20:28:30.731Z,10.20
2023-02-18T20:31:08.766Z,10.10
2023-02-18T20:33:37.236Z,10.10
2023-02-18T20:36:08.363Z,10.10
2023-02-18T20:38:37.330Z,10.00
2023-02-18T20:41:05.902Z,10.00
2023-02-18T20:43:33.183Z,10.00
2023-02-18T20:46:11.981Z,10.00
2023-02-18T20:48:39.241Z,9.90
2023-02-18T20:51:07.996Z,10.00
2023-02-18T20:53:36.949Z,9.90
2023-02-18T20:56:04.745Z,9.90
2023-02-18T20:58:32.629Z,9.90
2023-02-18T21:01:11.625Z,9.90
2023-02-18T21:03:39.655Z,9.90
2023-02-18T21:06:12.279Z,9.80
2023-02-18T21:11:34.619Z,9.80
2023-02-18T21:14:13.684Z,9.80
2023-02-18T21:16:52.977Z,9.80
2023-02-18T21:19:20.069Z,9.90
2023-02-18T21:21:48.584Z,9.80
2023-02-18T21:24:15.542Z,9.80
2023-02-18T21:26:48.764Z,9.80
2023-02-18T21:29:17.089Z,9.80
2023-02-18T21:31:44.254Z,9.80
2023-02-18T21:34:13.397Z,9.80
2023-02-18T21:36:40.410Z,9.80
2023-02-18T21:39:23.302Z,9.80
2023-02-18T21:41:50.018Z,9.80
2023-02-18T21:44:16.831Z,9.80
2023-02-18T21:46:43.622Z,9.80
2023-02-18T21:49:12.303Z,9.80
2023-02-18T21:52:10.420Z,9.80
2023-02-18T21:54:46.808Z,9.80
2023-02-18T21:57:15.881Z,9.80
2023-02-18T21:59:43.030Z,9.80
2023-02-18T22:02:17.051Z,9.80
2023-02-18T22:04:44.208Z,9.80
2023-02-18T22:07:12.348Z,9.80
2023-02-18T22:09:39.249Z,9.80
2023-02-18T22:12:06.699Z,9.80
2023-02-18T22:14:33.522Z,9.80
2023-02-18T22:17:05.004Z,9.80
2023-02-18T22:19:31.972Z,9.80
2023-02-18T22:21:58.791Z,9.80
2023-02-18T22:24:25.592Z,9.80
2023-02-18T22:26:52.324Z,9.80
2023-02-18T22:29:19.930Z,9.80
2023-02-18T22:31:47.593Z,9.80
2023-02-18T22:34:16.925Z,9.80
2023-02-18T22:36:43.589Z,9.80
2023-02-18T22:39:11.226Z,9.80
2023-02-18T22:41:38.249Z,9.90
2023-02-18T22:44:07.415Z,9.80
2023-02-18T22:46:35.668Z,9.90
2023-02-18T22:49:04.177Z,9.80
2023-02-18T22:51:37.762Z,9.80
2023-02-18T22:54:06.406Z,9.80
2023-02-18T22:56:36.276Z,9.80
2023-02-18T22:59:03.677Z,9.80
2023-02-18T23:01:35.393Z,9.80
2023-02-18T23:04:16.417Z,9.80
2023-02-18T23:06:44.959Z,9.80
2023-02-18T23:09:21.612Z,9.80
2023-02-18T23:11:53.114Z,9.80
2023-02-18T23:14:21.917Z,9.80
2023-02-18T23:17:13.428Z,9.80
2023-02-18T23:19:41.504Z,9.80
2023-02-18T23:22:10.424Z,9.80
2023-02-18T23:24:40.058Z,9.80
2023-02-18T23:27:11.743Z,9.80
2023-02-18T23:29:39.004Z,9.80
2023-02-18T23:32:06.627Z,9.80
2023-02-18T23:34:33.463Z,9.80
2023-02-18T23:37:03.230Z,9.80
2023-02-18T23:39:30.447Z,9.80
2023-02-18T23:41:57.145Z,9.80
2023-02-18T23:44:26.439Z,9.80
2023-02-18T23:46:53.301Z,9.80
2023-02-18T23:49:23.053Z,9.80
2023-02-18T23:51:54.144Z,9.70
2023-02-18T23:54:21.349Z,9.70
2023-02-18T23:56:49.599Z,9.70
2023-02-18T23:59:16.422Z,9.70
